sensor_id;sensor_type;location;lat;lon;timestamp;P1;durP1;ratioP1;P2;durP2;ratioP2
27985;SDS011;15453;53.692;10.168;2022-12-11T00:00:33;10.40;;;6.88;;
27985;SDS011;15453;53.692;10.168;2022-12-11T00:02:58;10.43;;;6.70;;
27985;SDS011;15453;53.692;10.168;2022-12-11T00:05:23;11.10;;;6.95;;
27985;SDS011;15453;53.692;10.168;2022-12-11T00:07:49;10.95;;;7.03;;
27985;SDS011;15453;53.692;10.168;2022-12-11T00:10:14;11.35;;;6.28;;
27985;SDS011;15453;53.692;10.168;2022-12-11T00:12:39;10.63;;;6.57;;
27985;SDS011;15453;53.692;10.168;2022-12-11T00:15:04;9.82;;;6.25;;
27985;SDS011;15453;53.692;10.168;2022-12-11T00:17:30;10.32;;;6.65;;
27985;SDS011;15453;53.692;10.168;2022-12-11T00:19:55;11.40;;;6.75;;
27985;SDS011;15453;53.692;10.168;2022-12-11T00:22:20;13.35;;;7.32;;
27985;SDS011;15453;53.692;10.168;2022-12-11T00:24:46;10.90;;;6.40;;
27985;SDS011;15453;53.692;10.168;2022-12-11T00:27:11;11.52;;;6.80;;
27985;SDS011;15453;53.692;10.168;2022-12-11T00:29:36;11.40;;;7.18;;
27985;SDS011;15453;53.692;10.168;2022-12-11T00:32:01;10.88;;;7.18;;
27985;SDS011;15453;53.692;10.168;2022-12-11T00:34:27;12.52;;;6.63;;
27985;SDS011;15453;53.692;10.168;2022-12-11T00:36:52;11.48;;;7.60;;
27985;SDS011;15453;53.692;10.168;2022-12-11T00:39:17;11.38;;;7.45;;
27985;SDS011;15453;53.692;10.168;2022-12-11T00:41:42;12.40;;;7.90;;
27985;SDS011;15453;53.692;10.168;2022-12-11T00:44:08;12.80;;;7.63;;
27985;SDS011;15453;53.692;10.168;2022-12-11T00:46:34;12.65;;;7.10;;
27985;SDS011;15453;53.692;10.168;2022-12-11T00:48:59;12.52;;;6.75;;
27985;SDS011;15453;53.692;10.168;2022-12-11T00:51:24;12.60;;;6.70;;
27985;SDS011;15453;53.692;10.168;2022-12-11T00:53:50;11.18;;;7.00;;
27985;SDS011;15453;53.692;10.168;2022-12-11T00:56:17;10.80;;;6.28;;
27985;SDS011;15453;53.692;10.168;2022-12-11T00:58:44;9.85;;;7.28;;
27985;SDS011;15453;53.692;10.168;2022-12-11T01:01:11;13.55;;;6.80;;
27985;SDS011;15453;53.692;10.168;2022-12-11T01:03:38;10.80;;;6.40;;
27985;SDS011;15453;53.692;10.168;2022-12-11T01:06:04;8.90;;;5.85;;
27985;SDS011;15453;53.692;10.168;2022-12-11T01:08:30;9.20;;;5.60;;
27985;SDS011;15453;53.692;10.168;2022-12-11T01:11:02;9.55;;;5.70;;
27985;SDS011;15453;53.692;10.168;2022-12-11T01:13:29;8.80;;;5.43;;
27985;SDS011;15453;53.692;10.168;2022-12-11T01:15:54;8.20;;;5.50;;
27985;SDS011;15453;53.692;10.168;2022-12-11T01:18:20;9.23;;;5.78;;
27985;SDS011;15453;53.692;10.168;2022-12-11T01:20:45;8.07;;;5.20;;
27985;SDS011;15453;53.692;10.168;2022-12-11T01:23:11;11.30;;;5.82;;
27985;SDS011;15453;53.692;10.168;2022-12-11T01:25:37;9.77;;;6.63;;
27985;SDS011;15453;53.692;10.168;2022-12-11T01:28:03;10.48;;;6.55;;
27985;SDS011;15453;53.692;10.168;2022-12-11T01:30:29;10.98;;;6.85;;
27985;SDS011;15453;53.692;10.168;2022-12-11T01:32:54;11.27;;;6.55;;
27985;SDS011;15453;53.692;10.168;2022-12-11T01:35:19;11.13;;;6.47;;
27985;SDS011;15453;53.692;10.168;2022-12-11T01:37:45;9.60;;;6.40;;
27985;SDS011;15453;53.692;10.168;2022-12-11T01:40:14;10.73;;;6.63;;
27985;SDS011;15453;53.692;10.168;2022-12-11T01:42:41;9.65;;;6.25;;
27985;SDS011;15453;53.692;10.168;2022-12-11T01:47:51;9.07;;;6.05;;
27985;SDS011;15453;53.692;10.168;2022-12-11T01:50:20;10.15;;;5.65;;
27985;SDS011;15453;53.692;10.168;2022-12-11T01:52:45;9.48;;;5.82;;
27985;SDS011;15453;53.692;10.168;2022-12-11T01:55:12;10.95;;;6.28;;
27985;SDS011;15453;53.692;10.168;2022-12-11T01:57:39;10.02;;;6.22;;
27985;SDS011;15453;53.692;10.168;2022-12-11T02:00:06;11.10;;;6.82;;
27985;SDS011;15453;53.692;10.168;2022-12-11T02:02:32;10.27;;;6.30;;
27985;SDS011;15453;53.692;10.168;2022-12-11T02:04:58;9.50;;;5.78;;
27985;SDS011;15453;53.692;10.168;2022-12-11T02:07:26;10.98;;;6.57;;
27985;SDS011;15453;53.692;10.168;2022-12-11T02:09:53;9.63;;;5.90;;
27985;SDS011;15453;53.692;10.168;2022-12-11T02:12:25;10.60;;;6.18;;
27985;SDS011;15453;53.692;10.168;2022-12-11T02:15:02;12.63;;;7.25;;
27985;SDS011;15453;53.692;10.168;2022-12-11T02:17:43;12.13;;;7.05;;
27985;SDS011;15453;53.692;10.168;2022-12-11T02:25:49;13.75;;;6.82;;
27985;SDS011;15453;53.692;10.168;2022-12-11T02:31:06;11.25;;;7.00;;
27985;SDS011;15453;53.692;10.168;2022-12-11T02:33:40;11.27;;;6.75;;
27985;SDS011;15453;53.692;10.168;2022-12-11T02:36:09;12.40;;;7.10;;
27985;SDS011;15453;53.692;10.168;2022-12-11T02:38:36;11.50;;;7.00;;
27985;SDS011;15453;53.692;10.168;2022-12-11T02:41:05;11.18;;;7.13;;
27985;SDS011;15453;53.692;10.168;2022-12-11T02:43:32;12.90;;;7.97;;
27985;SDS011;15453;53.692;10.168;2022-12-11T02:45:58;14.80;;;7.28;;
27985;SDS011;15453;53.692;10.168;2022-12-11T02:48:25;11.73;;;7.22;;
27985;SDS011;15453;53.692;10.168;2022-12-11T02:50:51;13.70;;;7.97;;
27985;SDS011;15453;53.692;10.168;2022-12-11T02:55:49;11.30;;;6.60;;
27985;SDS011;15453;53.692;10.168;2022-12-11T02:58:21;12.60;;;7.40;;
27985;SDS011;15453;53.692;10.168;2022-12-11T03:00:50;14.88;;;8.50;;
27985;SDS011;15453;53.692;10.168;2022-12-11T03:03:15;14.52;;;8.98;;
27985;SDS011;15453;53.692;10.168;2022-12-11T03:05:41;14.50;;;8.98;;
27985;SDS011;15453;53.692;10.168;2022-12-11T03:08:06;14.88;;;8.65;;
27985;SDS011;15453;53.692;10.168;2022-12-11T03:10:32;14.85;;;9.40;;
27985;SDS011;15453;53.692;10.168;2022-12-11T03:12:57;18.52;;;10.73;;
27985;SDS011;15453;53.692;10.168;2022-12-11T03:15:28;16.48;;;10.65;;
27985;SDS011;15453;53.692;10.168;2022-12-11T03:18:14;17.75;;;10.65;;
27985;SDS011;15453;53.692;10.168;2022-12-11T03:20:46;15.73;;;10.20;;
27985;SDS011;15453;53.692;10.168;2022-12-11T03:23:44;16.55;;;9.82;;
27985;SDS011;15453;53.692;10.168;2022-12-11T03:26:13;16.02;;;9.30;;
27985;SDS011;15453;53.692;10.168;2022-12-11T03:28:44;15.20;;;8.95;;
27985;SDS011;15453;53.692;10.168;2022-12-11T03:31:26;15.20;;;9.23;;
27985;SDS011;15453;53.692;10.168;2022-12-11T03:33:58;17.42;;;10.13;;
27985;SDS011;15453;53.692;10.168;2022-12-11T03:36:31;17.10;;;10.30;;
27985;SDS011;15453;53.692;10.168;2022-12-11T03:39:00;18.48;;;11.15;;
27985;SDS011;15453;53.692;10.168;2022-12-11T03:41:30;17.55;;;10.60;;
27985;SDS011;15453;53.692;10.168;2022-12-11T03:43:58;16.63;;;10.60;;
27985;SDS011;15453;53.692;10.168;2022-12-11T03:46:26;17.05;;;10.27;;
27985;SDS011;15453;53.692;10.168;2022-12-11T03:48:55;17.40;;;10.50;;
27985;SDS011;15453;53.692;10.168;2022-12-11T03:51:24;19.90;;;11.95;;
27985;SDS011;15453;53.692;10.168;2022-12-11T03:53:52;17.10;;;10.52;;
27985;SDS011;15453;53.692;10.168;2022-12-11T03:56:19;21.55;;;12.35;;
27985;SDS011;15453;53.692;10.168;2022-12-11T03:58:46;17.52;;;10.75;;
27985;SDS011;15453;53.692;10.168;2022-12-11T04:01:11;18.15;;;10.98;;
27985;SDS011;15453;53.692;10.168;2022-12-11T04:03:37;21.08;;;12.25;;
27985;SDS011;15453;53.692;10.168;2022-12-11T04:06:02;17.77;;;11.07;;
27985;SDS011;15453;53.692;10.168;2022-12-11T04:08:27;18.27;;;11.07;;
27985;SDS011;15453;53.692;10.168;2022-12-11T04:10:53;18.40;;;11.65;;
27985;SDS011;15453;53.692;10.168;2022-12-11T04:13:38;17.13;;;10.40;;
27985;SDS011;15453;53.692;10.168;2022-12-11T04:16:05;17.83;;;10.95;;
27985;SDS011;15453;53.692;10.168;2022-12-11T04:18:31;17.73;;;10.52;;
27985;SDS011;15453;53.692;10.168;2022-12-11T04:21:15;17.77;;;10.20;;
27985;SDS011;15453;53.692;10.168;2022-12-11T04:23:59;15.98;;;9.45;;
27985;SDS011;15453;53.692;10.168;2022-12-11T04:26:39;21.02;;;11.30;;
27985;SDS011;15453;53.692;10.168;2022-12-11T04:29:05;16.00;;;9.88;;
27985;SDS011;15453;53.692;10.168;2022-12-11T04:31:30;15.68;;;9.60;;
27985;SDS011;15453;53.692;10.168;2022-12-11T04:33:55;16.45;;;9.60;;
27985;SDS011;15453;53.692;10.168;2022-12-11T04:36:21;16.25;;;9.75;;
27985;SDS011;15453;53.692;10.168;2022-12-11T04:38:46;16.20;;;9.68;;
27985;SDS011;15453;53.692;10.168;2022-12-11T04:41:13;14.50;;;9.10;;
27985;SDS011;15453;53.692;10.168;2022-12-11T04:43:39;15.88;;;9.18;;
27985;SDS011;15453;53.692;10.168;2022-12-11T04:46:06;14.50;;;9.43;;
27985;SDS011;15453;53.692;10.168;2022-12-11T04:48:32;15.82;;;9.90;;
27985;SDS011;15453;53.692;10.168;2022-12-11T04:50:58;18.58;;;10.05;;
27985;SDS011;15453;53.692;10.168;2022-12-11T04:53:23;16.75;;;9.57;;
27985;SDS011;15453;53.692;10.168;2022-12-11T04:55:49;16.50;;;10.80;;
27985;SDS011;15453;53.692;10.168;2022-12-11T04:58:14;16.40;;;9.95;;
27985;SDS011;15453;53.692;10.168;2022-12-11T05:00:40;14.85;;;9.18;;
27985;SDS011;15453;53.692;10.168;2022-12-11T05:03:05;19.05;;;10.30;;
27985;SDS011;15453;53.692;10.168;2022-12-11T05:05:31;17.17;;;9.82;;
27985;SDS011;15453;53.692;10.168;2022-12-11T05:07:56;18.25;;;9.98;;
27985;SDS011;15453;53.692;10.168;2022-12-11T05:10:21;16.83;;;10.50;;
27985;SDS011;15453;53.692;10.168;2022-12-11T05:12:46;18.35;;;11.23;;
27985;SDS011;15453;53.692;10.168;2022-12-11T05:15:12;18.88;;;11.27;;
27985;SDS011;15453;53.692;10.168;2022-12-11T05:17:37;19.33;;;11.57;;
27985;SDS011;15453;53.692;10.168;2022-12-11T05:20:02;16.38;;;9.98;;
27985;SDS011;15453;53.692;10.168;2022-12-11T05:22:28;15.23;;;9.73;;
27985;SDS011;15453;53.692;10.168;2022-12-11T05:24:54;19.60;;;11.18;;
27985;SDS011;15453;53.692;10.168;2022-12-11T05:27:19;17.98;;;11.27;;
27985;SDS011;15453;53.692;10.168;2022-12-11T05:29:44;17.80;;;10.68;;
27985;SDS011;15453;53.692;10.168;2022-12-11T05:32:10;20.00;;;12.15;;
27985;SDS011;15453;53.692;10.168;2022-12-11T05:34:35;18.08;;;11.35;;
27985;SDS011;15453;53.692;10.168;2022-12-11T05:37:00;18.33;;;10.95;;
27985;SDS011;15453;53.692;10.168;2022-12-11T05:39:26;18.48;;;11.23;;
27985;SDS011;15453;53.692;10.168;2022-12-11T05:41:51;20.00;;;11.55;;
27985;SDS011;15453;53.692;10.168;2022-12-11T05:44:16;16.77;;;10.20;;
27985;SDS011;15453;53.692;10.168;2022-12-11T05:46:41;19.70;;;11.25;;
27985;SDS011;15453;53.692;10.168;2022-12-11T05:49:08;17.98;;;10.60;;
27985;SDS011;15453;53.692;10.168;2022-12-11T05:51:34;20.45;;;11.70;;
27985;SDS011;15453;53.692;10.168;2022-12-11T05:53:59;19.17;;;11.05;;
27985;SDS011;15453;53.692;10.168;2022-12-11T05:56:26;19.15;;;10.90;;
27985;SDS011;15453;53.692;10.168;2022-12-11T05:58:56;17.13;;;10.43;;
27985;SDS011;15453;53.692;10.168;2022-12-11T06:01:23;19.83;;;12.50;;
27985;SDS011;15453;53.692;10.168;2022-12-11T06:03:50;19.58;;;11.38;;
27985;SDS011;15453;53.692;10.168;2022-12-11T06:06:15;18.42;;;10.68;;
27985;SDS011;15453;53.692;10.168;2022-12-11T06:08:41;20.33;;;11.20;;
27985;SDS011;15453;53.692;10.168;2022-12-11T06:11:06;22.88;;;12.52;;
27985;SDS011;15453;53.692;10.168;2022-12-11T06:13:32;25.60;;;12.82;;
27985;SDS011;15453;53.692;10.168;2022-12-11T06:16:01;23.00;;;13.05;;
27985;SDS011;15453;53.692;10.168;2022-12-11T06:18:30;24.35;;;12.70;;
27985;SDS011;15453;53.692;10.168;2022-12-11T06:20:56;32.60;;;18.67;;
27985;SDS011;15453;53.692;10.168;2022-12-11T06:23:21;37.97;;;19.65;;
27985;SDS011;15453;53.692;10.168;2022-12-11T06:25:47;30.58;;;18.17;;
27985;SDS011;15453;53.692;10.168;2022-12-11T06:28:12;27.35;;;16.58;;
27985;SDS011;15453;53.692;10.168;2022-12-11T06:30:37;30.23;;;16.40;;
27985;SDS011;15453;53.692;10.168;2022-12-11T06:33:03;22.80;;;13.80;;
27985;SDS011;15453;53.692;10.168;2022-12-11T06:35:28;20.02;;;11.85;;
27985;SDS011;15453;53.692;10.168;2022-12-11T06:37:54;19.40;;;11.40;;
27985;SDS011;15453;53.692;10.168;2022-12-11T06:40:19;21.08;;;12.30;;
27985;SDS011;15453;53.692;10.168;2022-12-11T06:42:44;22.02;;;12.27;;
27985;SDS011;15453;53.692;10.168;2022-12-11T06:45:10;20.08;;;11.95;;
27985;SDS011;15453;53.692;10.168;2022-12-11T06:47:35;23.55;;;11.95;;
27985;SDS011;15453;53.692;10.168;2022-12-11T06:50:01;18.83;;;10.95;;
27985;SDS011;15453;53.692;10.168;2022-12-11T06:52:26;20.58;;;11.88;;
27985;SDS011;15453;53.692;10.168;2022-12-11T06:54:52;22.60;;;12.25;;
27985;SDS011;15453;53.692;10.168;2022-12-11T06:57:18;22.58;;;12.68;;
27985;SDS011;15453;53.692;10.168;2022-12-11T06:59:43;21.17;;;12.00;;
27985;SDS011;15453;53.692;10.168;2022-12-11T07:02:12;20.70;;;12.13;;
27985;SDS011;15453;53.692;10.168;2022-12-11T07:04:39;20.58;;;11.85;;
27985;SDS011;15453;53.692;10.168;2022-12-11T07:07:05;21.70;;;12.82;;
27985;SDS011;15453;53.692;10.168;2022-12-11T07:09:31;21.92;;;12.93;;
27985;SDS011;15453;53.692;10.168;2022-12-11T07:11:56;21.75;;;12.10;;
27985;SDS011;15453;53.692;10.168;2022-12-11T07:14:22;22.95;;;12.63;;
27985;SDS011;15453;53.692;10.168;2022-12-11T07:16:47;21.05;;;11.80;;
27985;SDS011;15453;53.692;10.168;2022-12-11T07:19:12;23.08;;;13.30;;
27985;SDS011;15453;53.692;10.168;2022-12-11T07:21:37;20.92;;;11.98;;
27985;SDS011;15453;53.692;10.168;2022-12-11T07:24:03;19.30;;;11.38;;
27985;SDS011;15453;53.692;10.168;2022-12-11T07:26:28;21.83;;;12.40;;
27985;SDS011;15453;53.692;10.168;2022-12-11T07:28:57;24.23;;;12.73;;
27985;SDS011;15453;53.692;10.168;2022-12-11T07:31:23;20.42;;;11.77;;
27985;SDS011;15453;53.692;10.168;2022-12-11T07:33:57;25.58;;;13.60;;
27985;SDS011;15453;53.692;10.168;2022-12-11T07:36:24;24.38;;;13.70;;
27985;SDS011;15453;53.692;10.168;2022-12-11T07:38:50;23.73;;;13.95;;
27985;SDS011;15453;53.692;10.168;2022-12-11T07:41:16;24.70;;;14.07;;
27985;SDS011;15453;53.692;10.168;2022-12-11T07:43:42;24.33;;;14.45;;
27985;SDS011;15453;53.692;10.168;2022-12-11T07:46:09;21.70;;;12.68;;
27985;SDS011;15453;53.692;10.168;2022-12-11T07:48:38;19.58;;;10.32;;
27985;SDS011;15453;53.692;10.168;2022-12-11T07:51:11;23.55;;;12.88;;
27985;SDS011;15453;53.692;10.168;2022-12-11T07:53:38;24.15;;;13.23;;
27985;SDS011;15453;53.692;10.168;2022-12-11T07:56:04;22.58;;;12.60;;
27985;SDS011;15453;53.692;10.168;2022-12-11T07:58:29;24.42;;;13.35;;
27985;SDS011;15453;53.692;10.168;2022-12-11T08:00:55;22.02;;;12.55;;
27985;SDS011;15453;53.692;10.168;2022-12-11T08:03:20;20.63;;;12.35;;
27985;SDS011;15453;53.692;10.168;2022-12-11T08:05:47;25.05;;;13.45;;
27985;SDS011;15453;53.692;10.168;2022-12-11T08:08:13;23.65;;;13.25;;
27985;SDS011;15453;53.692;10.168;2022-12-11T08:10:39;22.25;;;13.35;;
27985;SDS011;15453;53.692;10.168;2022-12-11T08:13:04;19.65;;;11.68;;
27985;SDS011;15453;53.692;10.168;2022-12-11T08:15:29;22.98;;;13.32;;
27985;SDS011;15453;53.692;10.168;2022-12-11T08:17:54;28.63;;;15.18;;
27985;SDS011;15453;53.692;10.168;2022-12-11T08:20:20;26.65;;;14.73;;
27985;SDS011;15453;53.692;10.168;2022-12-11T08:22:45;24.17;;;13.75;;
27985;SDS011;15453;53.692;10.168;2022-12-11T08:25:10;23.92;;;14.23;;
27985;SDS011;15453;53.692;10.168;2022-12-11T08:27:36;27.08;;;13.85;;
27985;SDS011;15453;53.692;10.168;2022-12-11T08:30:01;23.35;;;12.95;;
27985;SDS011;15453;53.692;10.168;2022-12-11T08:32:26;24.48;;;13.85;;
27985;SDS011;15453;53.692;10.168;2022-12-11T08:34:51;27.50;;;14.82;;
27985;SDS011;15453;53.692;10.168;2022-12-11T08:37:16;27.08;;;14.25;;
27985;SDS011;15453;53.692;10.168;2022-12-11T08:39:42;24.05;;;13.75;;
27985;SDS011;15453;53.692;10.168;2022-12-11T08:42:07;25.80;;;14.35;;
27985;SDS011;15453;53.692;10.168;2022-12-11T08:44:33;24.80;;;14.02;;
27985;SDS011;15453;53.692;10.168;2022-12-11T08:46:58;25.23;;;13.75;;
27985;SDS011;15453;53.692;10.168;2022-12-11T08:49:23;23.48;;;13.43;;
27985;SDS011;15453;53.692;10.168;2022-12-11T08:51:48;24.35;;;13.07;;
27985;SDS011;15453;53.692;10.168;2022-12-11T08:54:14;23.60;;;12.45;;
27985;SDS011;15453;53.692;10.168;2022-12-11T08:56:39;25.02;;;13.65;;
27985;SDS011;15453;53.692;10.168;2022-12-11T08:59:04;21.90;;;12.32;;
27985;SDS011;15453;53.692;10.168;2022-12-11T09:01:30;22.17;;;12.70;;
27985;SDS011;15453;53.692;10.168;2022-12-11T09:03:56;22.92;;;12.20;;
27985;SDS011;15453;53.692;10.168;2022-12-11T09:06:22;23.75;;;12.85;;
27985;SDS011;15453;53.692;10.168;2022-12-11T09:08:49;25.33;;;14.10;;
27985;SDS011;15453;53.692;10.168;2022-12-11T09:11:18;24.40;;;13.70;;
27985;SDS011;15453;53.692;10.168;2022-12-11T09:16:12;23.75;;;12.75;;
27985;SDS011;15453;53.692;10.168;2022-12-11T09:18:39;23.55;;;13.13;;
27985;SDS011;15453;53.692;10.168;2022-12-11T09:21:06;26.15;;;14.50;;
27985;SDS011;15453;53.692;10.168;2022-12-11T09:23:33;23.90;;;13.40;;
27985;SDS011;15453;53.692;10.168;2022-12-11T09:25:58;25.10;;;14.00;;
27985;SDS011;15453;53.692;10.168;2022-12-11T09:28:24;27.52;;;15.45;;
27985;SDS011;15453;53.692;10.168;2022-12-11T09:30:50;27.70;;;15.63;;
27985;SDS011;15453;53.692;10.168;2022-12-11T09:33:15;26.98;;;15.93;;
27985;SDS011;15453;53.692;10.168;2022-12-11T09:35:41;33.97;;;18.55;;
27985;SDS011;15453;53.692;10.168;2022-12-11T09:38:07;35.65;;;19.55;;
27985;SDS011;15453;53.692;10.168;2022-12-11T09:40:33;34.55;;;17.77;;
27985;SDS011;15453;53.692;10.168;2022-12-11T09:43:05;29.98;;;16.60;;
27985;SDS011;15453;53.692;10.168;2022-12-11T09:45:41;27.58;;;15.30;;
27985;SDS011;15453;53.692;10.168;2022-12-11T09:48:06;25.67;;;14.52;;
27985;SDS011;15453;53.692;10.168;2022-12-11T09:50:35;25.42;;;14.48;;
27985;SDS011;15453;53.692;10.168;2022-12-11T09:53:10;22.30;;;12.35;;
27985;SDS011;15453;53.692;10.168;2022-12-11T09:55:44;21.55;;;11.95;;
27985;SDS011;15453;53.692;10.168;2022-12-11T09:58:28;23.60;;;12.88;;
27985;SDS011;15453;53.692;10.168;2022-12-11T10:01:09;24.92;;;14.23;;
27985;SDS011;15453;53.692;10.168;2022-12-11T10:04:00;25.40;;;14.52;;
27985;SDS011;15453;53.692;10.168;2022-12-11T10:09:29;31.00;;;15.57;;
27985;SDS011;15453;53.692;10.168;2022-12-11T10:12:22;25.38;;;13.80;;
27985;SDS011;15453;53.692;10.168;2022-12-11T10:15:18;26.63;;;14.93;;
27985;SDS011;15453;53.692;10.168;2022-12-11T10:17:50;25.98;;;14.20;;
27985;SDS011;15453;53.692;10.168;2022-12-11T10:20:22;28.83;;;15.38;;
27985;SDS011;15453;53.692;10.168;2022-12-11T10:22:53;23.55;;;13.98;;
27985;SDS011;15453;53.692;10.168;2022-12-11T10:27:51;22.52;;;12.98;;
27985;SDS011;15453;53.692;10.168;2022-12-11T10:30:21;25.95;;;14.30;;
27985;SDS011;15453;53.692;10.168;2022-12-11T10:32:52;24.95;;;14.45;;
27985;SDS011;15453;53.692;10.168;2022-12-11T10:38:14;23.17;;;13.85;;
27985;SDS011;15453;53.692;10.168;2022-12-11T10:40:54;25.40;;;14.75;;
27985;SDS011;15453;53.692;10.168;2022-12-11T10:43:36;25.95;;;14.93;;
27985;SDS011;15453;53.692;10.168;2022-12-11T10:46:04;22.10;;;12.75;;
27985;SDS011;15453;53.692;10.168;2022-12-11T10:48:43;23.92;;;13.77;;
27985;SDS011;15453;53.692;10.168;2022-12-11T10:51:52;24.02;;;13.75;;
27985;SDS011;15453;53.692;10.168;2022-12-11T10:56:54;21.38;;;12.63;;
27985;SDS011;15453;53.692;10.168;2022-12-11T10:59:32;22.38;;;13.50;;
27985;SDS011;15453;53.692;10.168;2022-12-11T11:02:02;22.92;;;12.90;;
27985;SDS011;15453;53.692;10.168;2022-12-11T11:04:30;22.80;;;12.95;;
27985;SDS011;15453;53.692;10.168;2022-12-11T11:07:00;26.27;;;14.98;;
27985;SDS011;15453;53.692;10.168;2022-12-11T11:09:34;24.60;;;13.50;;
27985;SDS011;15453;53.692;10.168;2022-12-11T11:12:00;23.52;;;13.50;;
27985;SDS011;15453;53.692;10.168;2022-12-11T11:14:26;22.73;;;12.60;;
27985;SDS011;15453;53.692;10.168;2022-12-11T11:16:53;21.90;;;12.65;;
27985;SDS011;15453;53.692;10.168;2022-12-11T11:21:52;22.45;;;12.90;;
27985;SDS011;15453;53.692;10.168;2022-12-11T11:24:43;24.30;;;13.65;;
27985;SDS011;15453;53.692;10.168;2022-12-11T11:27:32;23.35;;;13.88;;
27985;SDS011;15453;53.692;10.168;2022-12-11T11:30:01;25.40;;;12.90;;
27985;SDS011;15453;53.692;10.168;2022-12-11T11:32:32;24.88;;;13.98;;
27985;SDS011;15453;53.692;10.168;2022-12-11T11:37:37;22.35;;;13.30;;
27985;SDS011;15453;53.692;10.168;2022-12-11T11:40:24;23.00;;;12.70;;
27985;SDS011;15453;53.692;10.168;2022-12-11T11:43:17;23.88;;;12.82;;
27985;SDS011;15453;53.692;10.168;2022-12-11T11:46:01;20.95;;;11.95;;
27985;SDS011;15453;53.692;10.168;2022-12-11T11:48:39;21.00;;;12.70;;
27985;SDS011;15453;53.692;10.168;2022-12-11T11:51:54;23.48;;;13.15;;
27985;SDS011;15453;53.692;10.168;2022-12-11T11:54:17;26.23;;;14.98;;
27985;SDS011;15453;53.692;10.168;2022-12-11T11:56:49;25.38;;;13.23;;
27985;SDS011;15453;53.692;10.168;2022-12-11T11:59:24;23.58;;;13.25;;
27985;SDS011;15453;53.692;10.168;2022-12-11T12:01:55;27.55;;;15.70;;
27985;SDS011;15453;53.692;10.168;2022-12-11T12:04:21;22.98;;;13.07;;
27985;SDS011;15453;53.692;10.168;2022-12-11T12:06:59;24.20;;;13.77;;
27985;SDS011;15453;53.692;10.168;2022-12-11T12:09:45;21.02;;;12.93;;
27985;SDS011;15453;53.692;10.168;2022-12-11T12:12:38;21.52;;;12.65;;
27985;SDS011;15453;53.692;10.168;2022-12-11T12:18:05;20.15;;;11.70;;
27985;SDS011;15453;53.692;10.168;2022-12-11T12:26:38;25.08;;;13.57;;
27985;SDS011;15453;53.692;10.168;2022-12-11T12:32:11;21.50;;;12.38;;
27985;SDS011;15453;53.692;10.168;2022-12-11T12:40:25;24.70;;;13.05;;
27985;SDS011;15453;53.692;10.168;2022-12-11T12:43:03;23.17;;;13.13;;
27985;SDS011;15453;53.692;10.168;2022-12-11T12:48:25;21.10;;;12.10;;
27985;SDS011;15453;53.692;10.168;2022-12-11T12:50:51;20.55;;;11.05;;
27985;SDS011;15453;53.692;10.168;2022-12-11T12:53:18;19.77;;;11.65;;
27985;SDS011;15453;53.692;10.168;2022-12-11T12:55:47;17.55;;;10.25;;
27985;SDS011;15453;53.692;10.168;2022-12-11T12:58:23;20.77;;;11.10;;
27985;SDS011;15453;53.692;10.168;2022-12-11T13:01:05;22.00;;;12.27;;
27985;SDS011;15453;53.692;10.168;2022-12-11T13:06:51;19.02;;;10.30;;
27985;SDS011;15453;53.692;10.168;2022-12-11T13:09:18;17.10;;;10.30;;
27985;SDS011;15453;53.692;10.168;2022-12-11T13:11:46;20.45;;;11.70;;
27985;SDS011;15453;53.692;10.168;2022-12-11T13:16:43;20.00;;;11.35;;
27985;SDS011;15453;53.692;10.168;2022-12-11T13:21:55;18.85;;;11.05;;
27985;SDS011;15453;53.692;10.168;2022-12-11T13:26:46;21.98;;;12.13;;
27985;SDS011;15453;53.692;10.168;2022-12-11T13:32:04;17.58;;;10.85;;
27985;SDS011;15453;53.692;10.168;2022-12-11T13:34:55;20.30;;;11.90;;
27985;SDS011;15453;53.692;10.168;2022-12-11T13:37:23;22.00;;;12.18;;
27985;SDS011;15453;53.692;10.168;2022-12-11T13:39:53;21.42;;;11.73;;
27985;SDS011;15453;53.692;10.168;2022-12-11T13:42:22;19.02;;;10.25;;
27985;SDS011;15453;53.692;10.168;2022-12-11T13:44:53;19.90;;;11.45;;
27985;SDS011;15453;53.692;10.168;2022-12-11T13:47:18;23.33;;;12.07;;
27985;SDS011;15453;53.692;10.168;2022-12-11T13:49:45;20.58;;;11.90;;
27985;SDS011;15453;53.692;10.168;2022-12-11T13:52:17;20.45;;;11.55;;
27985;SDS011;15453;53.692;10.168;2022-12-11T13:54:48;23.75;;;13.10;;
27985;SDS011;15453;53.692;10.168;2022-12-11T13:57:16;31.05;;;14.85;;
27985;SDS011;15453;53.692;10.168;2022-12-11T14:02:18;30.30;;;14.60;;
27985;SDS011;15453;53.692;10.168;2022-12-11T14:04:48;31.42;;;16.17;;
27985;SDS011;15453;53.692;10.168;2022-12-11T14:07:19;30.77;;;16.77;;
27985;SDS011;15453;53.692;10.168;2022-12-11T14:09:59;29.10;;;15.07;;
27985;SDS011;15453;53.692;10.168;2022-12-11T14:12:38;34.13;;;17.95;;
27985;SDS011;15453;53.692;10.168;2022-12-11T14:15:12;32.95;;;15.95;;
27985;SDS011;15453;53.692;10.168;2022-12-11T14:17:39;27.55;;;14.80;;
27985;SDS011;15453;53.692;10.168;2022-12-11T14:20:13;27.77;;;14.55;;
27985;SDS011;15453;53.692;10.168;2022-12-11T14:22:42;29.52;;;15.57;;
27985;SDS011;15453;53.692;10.168;2022-12-11T14:25:15;26.85;;;14.60;;
27985;SDS011;15453;53.692;10.168;2022-12-11T14:27:46;24.15;;;12.88;;
27985;SDS011;15453;53.692;10.168;2022-12-11T14:30:18;26.83;;;14.80;;
27985;SDS011;15453;53.692;10.168;2022-12-11T14:32:45;22.67;;;13.02;;
27985;SDS011;15453;53.692;10.168;2022-12-11T14:35:20;19.02;;;11.27;;
27985;SDS011;15453;53.692;10.168;2022-12-11T14:37:57;20.08;;;11.52;;
27985;SDS011;15453;53.692;10.168;2022-12-11T14:40:31;24.08;;;12.52;;
27985;SDS011;15453;53.692;10.168;2022-12-11T14:43:03;20.17;;;13.20;;
27985;SDS011;15453;53.692;10.168;2022-12-11T14:45:41;23.02;;;12.40;;
27985;SDS011;15453;53.692;10.168;2022-12-11T14:53:42;17.48;;;9.88;;
27985;SDS011;15453;53.692;10.168;2022-12-11T14:56:15;22.25;;;11.30;;
27985;SDS011;15453;53.692;10.168;2022-12-11T14:58:44;23.08;;;12.50;;
27985;SDS011;15453;53.692;10.168;2022-12-11T15:01:55;23.10;;;12.93;;
27985;SDS011;15453;53.692;10.168;2022-12-11T15:04:26;22.30;;;12.48;;
27985;SDS011;15453;53.692;10.168;2022-12-11T15:06:56;22.98;;;12.60;;
27985;SDS011;15453;53.692;10.168;2022-12-11T15:09:35;28.83;;;14.93;;
27985;SDS011;15453;53.692;10.168;2022-12-11T15:12:11;24.13;;;13.30;;
27985;SDS011;15453;53.692;10.168;2022-12-11T15:14:50;23.95;;;12.93;;
27985;SDS011;15453;53.692;10.168;2022-12-11T15:17:18;19.95;;;11.95;;
27985;SDS011;15453;53.692;10.168;2022-12-11T15:19:45;27.15;;;14.40;;
27985;SDS011;15453;53.692;10.168;2022-12-11T15:22:15;26.27;;;14.80;;
27985;SDS011;15453;53.692;10.168;2022-12-11T15:24:42;25.08;;;14.35;;
27985;SDS011;15453;53.692;10.168;2022-12-11T15:29:59;25.42;;;13.85;;
27985;SDS011;15453;53.692;10.168;2022-12-11T15:32:25;23.73;;;13.63;;
27985;SDS011;15453;53.692;10.168;2022-12-11T15:37:33;35.20;;;18.90;;
27985;SDS011;15453;53.692;10.168;2022-12-11T15:40:02;30.35;;;16.27;;
27985;SDS011;15453;53.692;10.168;2022-12-11T15:42:30;26.48;;;14.27;;
27985;SDS011;15453;53.692;10.168;2022-12-11T15:45:04;24.60;;;14.20;;